Time;durP1;ratioP1;P1;durP2;ratioP2;P2;SDS_P1;SDS_P2;PMS_P1;PMS_P2;Temp;Humidity;BMP_temperature;BMP_pressure;BME280_temperature;BME280_humidity;BME280_pressure;Samples;Min_cycle;Max_cycle;Signal;HPM_P1;HPM_P2
2021/10/04 00:00:07;;;;;;;;;;;;;;;27.62;34.25;101652.69;5049300;28;1965;-38
2021/10/04 00:02:33;;;;;;;;;;;;;;;27.56;34.33;101658.75;5035772;28;1088;-38
2021/10/04 00:04:58;;;;;;;;;;;;;;;27.63;34.27;101651.66;5052585;28;1416;-37
2021/10/04 00:07:23;;;;;;;;;;;;;;;27.55;34.25;101651.63;5055573;28;1095;-37
2021/10/04 00:09:48;;;;;;;;;;;;;;;27.54;34.46;101644.56;5041634;28;1155;-37
2021/10/04 00:12:14;;;;;;;;;;;;;;;27.38;34.63;101638.94;5047909;28;1157;-37
2021/10/04 00:14:39;;;;;;;;;;;;;;;27.39;34.68;101640.59;5048376;28;1468;-38
2021/10/04 00:17:04;;;;;;;;;;;;;;;27.45;34.52;101640.97;5056027;28;1131;-37
2021/10/04 00:19:30;;;;;;;;;;;;;;;27.39;34.75;101635.22;5055352;28;1910;-38
2021/10/04 00:21:55;;;;;;;;;;;;;;;27.38;34.73;101635.38;5055360;28;1151;-37
2021/10/04 00:24:20;;;;;;;;;;;;;;;27.39;34.63;101634.38;5055599;28;1174;-38
2021/10/04 00:26:46;;;;;;;;;;;;;;;27.32;34.99;101636.88;5055580;28;1214;-38
2021/10/04 00:29:11;;;;;;;;;;;;;;;27.31;34.81;101639.75;5055294;28;1195;-38
2021/10/04 00:31:36;;;;;;;;;;;;;;;27.37;34.98;101639.09;5055397;28;1179;-38
2021/10/04 00:34:02;;;;;;;;;;;;;;;27.41;34.65;101637.75;5055203;28;1115;-37
2021/10/04 00:36:27;;;;;;;;;;;;;;;27.31;34.75;101637.06;5058165;28;1127;-37
2021/10/04 00:38:52;;;;;;;;;;;;;;;27.25;35.19;101642.09;5059216;28;1982;-38
2021/10/04 00:41:17;;;;;;;;;;;;;;;27.29;35.23;101634.50;5059238;28;1263;-37
2021/10/04 00:43:43;;;;;;;;;;;;;;;27.29;35.00;101641.75;5059338;28;1158;-37
2021/10/04 00:46:08;;;;;;;;;;;;;;;27.41;34.62;101645.84;5057302;28;975;-38
2021/10/04 00:48:33;;;;;;;;;;;;;;;27.09;35.36;101642.84;5046913;28;1140;-38
2021/10/04 00:50:59;;;;;;;;;;;;;;;27.40;34.90;101638.75;5059194;28;910;-38
2021/10/04 00:53:24;;;;;;;;;;;;;;;27.73;34.10;101641.59;5058972;28;1131;-38
2021/10/04 00:55:49;;;;;;;;;;;;;;;27.56;34.59;101637.97;5059204;28;1124;-38
2021/10/04 00:58:17;;;;;;;;;;;;;;;27.61;34.28;101634.78;5058768;28;1968;-38
2021/10/04 01:00:43;;;;;;;;;;;;;;;27.54;34.45;101634.59;5059466;28;1061;-37
2021/10/04 01:03:08;;;;;;;;;;;;;;;27.49;34.70;101634.25;5058953;28;1131;-38
2021/10/04 01:05:33;;;;;;;;;;;;;;;27.55;34.38;101636.28;5058978;28;1119;-38
2021/10/04 01:07:59;;;;;;;;;;;;;;;27.52;34.80;101628.50;5058890;28;1147;-37
2021/10/04 01:10:24;;;;;;;;;;;;;;;27.49;34.70;101629.66;5044796;28;1510;-38
2021/10/04 01:12:49;;;;;;;;;;;;;;;27.43;34.66;101630.31;5047194;28;1127;-38
2021/10/04 01:15:15;;;;;;;;;;;;;;;27.33;35.23;101630.47;5046087;28;1172;-38
2021/10/04 01:17:40;;;;;;;;;;;;;;;27.48;34.87;101627.97;5039283;28;1168;-38
2021/10/04 01:20:09;;;;;;;;;;;;;;;27.48;34.52;101627.97;5038515;28;1898;-38
2021/10/04 01:22:34;;;;;;;;;;;;;;;27.43;35.02;101629.47;5046571;28;1179;-37
2021/10/04 01:24:59;;;;;;;;;;;;;;;27.49;34.49;101628.84;5058588;28;1179;-37
2021/10/04 01:27:25;;;;;;;;;;;;;;;27.45;34.61;101632.88;5044747;28;1092;-37
2021/10/04 01:29:50;;;;;;;;;;;;;;;27.43;34.69;101630.31;5057966;28;882;-37
2021/10/04 01:32:15;;;;;;;;;;;;;;;27.41;34.62;101626.94;5058536;28;1207;-37
2021/10/04 01:34:41;;;;;;;;;;;;;;;27.47;34.71;101625.44;5058383;28;1104;-37
2021/10/04 01:37:06;;;;;;;;;;;;;;;27.45;34.84;101627.47;5058111;28;1131;-37
2021/10/04 01:39:31;;;;;;;;;;;;;;;27.37;35.13;101634.53;5058238;28;1902;-37
2021/10/04 01:41:56;;;;;;;;;;;;;;;27.46;34.74;101630.00;5057943;28;927;-37
2021/10/04 01:44:22;;;;;;;;;;;;;;;27.47;35.06;101623.59;5044222;28;1215;-37
2021/10/04 01:46:47;;;;;;;;;;;;;;;27.45;34.84;101630.16;5050117;28;1147;-37
2021/10/04 01:49:12;;;;;;;;;;;;;;;27.36;34.87;101626.59;5037868;28;1163;-37
2021/10/04 01:51:38;;;;;;;;;;;;;;;27.21;35.22;101629.91;5038038;28;1093;-37
2021/10/04 01:54:03;;;;;;;;;;;;;;;27.33;35.34;101632.31;5046040;28;1152;-37
2021/10/04 01:56:28;;;;;;;;;;;;;;;27.66;34.70;101639.69;5043379;28;1175;-37
2021/10/04 01:58:53;;;;;;;;;;;;;;;27.56;34.73;101632.56;5057878;28;1957;-37
2021/10/04 02:01:19;;;;;;;;;;;;;;;27.59;34.55;101628.69;5058207;28;1123;-37
2021/10/04 02:03:44;;;;;;;;;;;;;;;27.46;34.84;101623.75;5058229;28;1171;-37
2021/10/04 02:06:09;;;;;;;;;;;;;;;27.60;34.71;101625.81;5038569;28;1195;-37
2021/10/04 02:08:34;;;;;;;;;;;;;;;27.73;34.08;101625.38;5057879;28;1296;-37
2021/10/04 02:11:00;;;;;;;;;;;;;;;27.70;34.42;101624.84;5057767;28;1168;-37
2021/10/04 02:13:25;;;;;;;;;;;;;;;27.62;34.52;101626.50;5057512;28;1195;-37
2021/10/04 02:15:51;;;;;;;;;;;;;;;27.48;34.59;101633.38;5057710;28;990;-37
2021/10/04 02:18:17;;;;;;;;;;;;;;;27.54;34.57;101628.34;5056372;28;1914;-37
2021/10/04 02:20:42;;;;;;;;;;;;;;;27.55;34.67;101633.56;5054830;28;961;-37
2021/10/04 02:23:08;;;;;;;;;;;;;;;27.48;34.69;101635.22;5057403;28;1206;-37
2021/10/04 02:25:43;;;;;;;;;;;;;;;27.35;34.85;101638.41;5057296;28;1190;-37
2021/10/04 02:28:09;;;;;;;;;;;;;;;27.31;35.23;101634.34;5057169;28;1135;-38
2021/10/04 02:30:34;;;;;;;;;;;;;;;27.34;35.06;101637.53;5053276;28;1230;-38
2021/10/04 02:33:00;;;;;;;;;;;;;;;27.45;35.10;101628.31;5057374;28;882;-38
2021/10/04 02:35:25;;;;;;;;;;;;;;;27.31;35.10;101626.25;5041461;28;1227;-37
2021/10/04 02:37:51;;;;;;;;;;;;;;;27.24;35.26;101634.16;5045591;28;1112;-38
2021/10/04 02:40:16;;;;;;;;;;;;;;;27.45;35.12;101630.16;5042850;28;1910;-38
2021/10/04 02:42:42;;;;;;;;;;;;;;;27.25;35.45;101630.44;5036764;28;1048;-38
2021/10/04 02:45:08;;;;;;;;;;;;;;;27.31;35.41;101627.06;5047768;28;1176;-38
2021/10/04 02:47:33;;;;;;;;;;;;;;;27.31;35.25;101627.06;5057266;28;1174;-38
2021/10/04 02:49:58;;;;;;;;;;;;;;;27.36;35.28;101629.31;5057193;28;1127;-37
2021/10/04 02:52:24;;;;;;;;;;;;;;;27.35;35.04;101638.41;5045588;28;1116;-37
2021/10/04 02:54:49;;;;;;;;;;;;;;;27.23;35.46;101644.09;5054239;28;1236;-37
2021/10/04 02:57:17;;;;;;;;;;;;;;;27.26;35.17;101645.63;5056536;28;1174;-37
2021/10/04 02:59:42;;;;;;;;;;;;;;;27.33;35.25;101649.38;5047331;28;1959;-37
2021/10/04 03:02:07;;;;;;;;;;;;;;;27.36;35.03;101646.34;5057023;28;1135;-37
2021/10/04 03:04:33;;;;;;;;;;;;;;;27.39;35.04;101642.50;5056816;28;1522;-37
2021/10/04 03:06:58;;;;;;;;;;;;;;;27.39;35.32;101647.88;5050726;28;1057;-37
2021/10/04 03:09:24;;;;;;;;;;;;;;;27.36;35.11;101654.44;5048201;28;1226;-37
2021/10/04 03:11:49;;;;;;;;;;;;;;;27.05;35.87;101654.13;5055971;28;1277;-37
2021/10/04 03:14:14;;;;;;;;;;;;;;;27.62;34.82;101652.69;5056095;28;1127;-37
2021/10/04 03:16:39;;;;;;;;;;;;;;;27.79;34.57;101655.47;5052398;28;1087;-37
2021/10/04 03:19:05;;;;;;;;;;;;;;;27.56;34.71;101656.88;5054449;28;1975;-38
2021/10/04 03:21:30;;;;;;;;;;;;;;;27.47;34.94;101653.31;5056469;28;1131;-38
2021/10/04 03:23:55;;;;;;;;;;;;;;;27.58;34.61;101649.47;5052478;28;1084;-37
2021/10/04 03:26:21;;;;;;;;;;;;;;;27.65;34.94;101646.94;5038682;28;1124;-38
2021/10/04 03:28:46;;;;;;;;;;;;;;;27.56;34.91;101647.94;5041412;28;1096;-38
2021/10/04 03:31:11;;;;;;;;;;;;;;;27.58;34.77;101648.59;5056293;28;1003;-38
2021/10/04 03:33:36;;;;;;;;;;;;;;;27.43;35.21;101646.53;5056178;28;1127;-38
2021/10/04 03:36:02;;;;;;;;;;;;;;;27.43;35.35;101645.69;5050811;28;1167;-37
2021/10/04 03:38:27;;;;;;;;;;;;;;;27.26;35.47;101649.19;5037605;28;1897;-37
2021/10/04 03:40:52;;;;;;;;;;;;;;;26.66;32.32;101642.72;5055379;28;1211;-36
2021/10/04 03:43:18;;;;;;;;;;;;;;;25.02;32.02;101647.91;5046989;28;1155;-35
2021/10/04 03:45:43;;;;;;;;;;;;;;;24.85;31.92;101633.34;5039566;28;1140;-35
2021/10/04 03:48:08;;;;;;;;;;;;;;;23.82;33.63;101633.63;5054139;28;1121;-36
2021/10/04 03:50:33;;;;;;;;;;;;;;;24.08;33.59;101634.94;5045458;28;1147;-35
2021/10/04 03:52:59;;;;;;;;;;;;;;;24.39;33.11;101631.31;5036466;28;1155;-34
2021/10/04 03:55:24;;;;;;;;;;;;;;;24.39;33.56;101634.00;5042501;28;1167;-35
2021/10/04 03:57:49;;;;;;;;;;;;;;;24.09;33.32;101629.44;5055772;28;1327;-35
2021/10/04 04:00:17;;;;;;;;;;;;;;;24.14;33.36;101622.78;5047747;28;2021;-35
2021/10/04 04:02:42;;;;;;;;;;;;;;;24.51;32.98;101630.16;5055313;28;1208;-37
2021/10/04 04:05:07;;;;;;;;;;;;;;;24.53;32.14;101632.69;5050991;28;1112;-41
2021/10/04 04:07:33;;;;;;;;;;;;;;;25.31;31.52;101636.16;5051276;28;1183;-39
2021/10/04 04:09:58;;;;;;;;;;;;;;;24.66;31.38;101637.75;5042457;28;1134;-35
2021/10/04 04:12:23;;;;;;;;;;;;;;;24.73;31.01;101638.03;5051505;28;1099;-37
2021/10/04 04:14:48;;;;;;;;;;;;;;;25.10;30.13;101639.09;5049847;28;1282;-36
2021/10/04 04:17:14;;;;;;;;;;;;;;;25.18;29.79;101649.97;5059835;28;1115;-36
2021/10/04 04:19:39;;;;;;;;;;;;;;;25.55;29.14;101650.94;5059416;28;1979;-37
2021/10/04 04:22:04;;;;;;;;;;;;;;;22.02;35.04;101645.34;5058463;28;1331;-37
2021/10/04 04:24:30;;;;;;;;;;;;;;;20.37;38.07;101640.22;5059484;28;1147;-36
2021/10/04 04:26:56;;;;;;;;;;;;;;;21.36;36.89;101646.97;5057071;28;1183;-36
2021/10/04 04:29:22;;;;;;;;;;;;;;;22.68;33.70;101646.16;5047635;28;1211;-37
2021/10/04 04:31:48;;;;;;;;;;;;;;;21.75;35.41;101654.63;5059453;28;1174;-37
2021/10/04 04:34:13;;;;;;;;;;;;;;;20.83;37.79;101659.91;5059350;28;1249;-36
2021/10/04 04:36:40;;;;;;;;;;;;;;;21.96;35.87;101673.47;5059703;28;1112;-36
2021/10/04 04:39:05;;;;;;;;;;;;;;;23.15;33.67;101670.84;5058461;28;2014;-36
2021/10/04 04:41:30;;;;;;;;;;;;;;;24.05;32.10;101676.41;5050190;28;1009;-36
2021/10/04 04:43:55;;;;;;;;;;;;;;;24.59;31.20;101675.16;5053752;28;1143;-37
2021/10/04 04:46:21;;;;;;;;;;;;;;;23.96;31.83;101670.03;5057388;28;1165;-36
2021/10/04 04:48:46;;;;;;;;;;;;;;;23.64;32.81;101675.63;5059378;28;950;-36
2021/10/04 04:51:11;;;;;;;;;;;;;;;23.69;32.47;101676.88;5059213;28;1140;-36
2021/10/04 04:53:36;;;;;;;;;;;;;;;24.02;32.24;101678.53;5058494;28;947;-37
2021/10/04 04:56:02;;;;;;;;;;;;;;;24.67;30.91;101677.16;5059312;28;1195;-36
2021/10/04 04:58:27;;;;;;;;;;;;;;;25.34;30.68;101676.25;5056256;28;1964;-39
2021/10/04 05:00:52;;;;;;;;;;;;;;;26.09;30.32;101674.44;5045814;28;1354;-39
2021/10/04 05:03:18;;;;;;;;;;;;;;;25.84;32.49;101681.44;5058555;28;957;-39
2021/10/04 05:05:43;;;;;;;;;;;;;;;25.55;33.55;101670.66;5058799;28;1146;-37
2021/10/04 05:08:09;;;;;;;;;;;;;;;26.28;31.98;101683.38;5059244;28;1132;-40
2021/10/04 05:10:34;;;;;;;;;;;;;;;26.01;33.16;101682.44;5058580;28;1159;-39
2021/10/04 05:12:59;;;;;;;;;;;;;;;26.00;33.41;101691.53;5058350;28;1174;-39
2021/10/04 05:15:26;;;;;;;;;;;;;;;26.14;33.36;101692.88;5058020;28;1241;-39
2021/10/04 05:17:51;;;;;;;;;;;;;;;25.80;33.43;101691.66;5058400;28;1191;-39
2021/10/04 05:20:17;;;;;;;;;;;;;;;25.76;33.39;101692.94;5058715;28;1981;-39
2021/10/04 05:22:42;;;;;;;;;;;;;;;25.84;33.58;101693.03;5052521;28;987;-38
2021/10/04 05:25:07;;;;;;;;;;;;;;;25.87;33.79;101700.00;5047692;28;1147;-38
2021/10/04 05:27:33;;;;;;;;;;;;;;;26.01;33.52;101691.38;5048004;28;1184;-39
2021/10/04 05:29:58;;;;;;;;;;;;;;;26.07;33.56;101695.34;5045837;28;1011;-39
2021/10/04 05:32:23;;;;;;;;;;;;;;;26.14;33.93;101701.78;5056964;28;1155;-39
2021/10/04 05:34:49;;;;;;;;;;;;;;;26.18;34.09;101705.03;5053140;28;1159;-38
2021/10/04 05:37:14;;;;;;;;;;;;;;;26.21;34.00;101698.50;5054933;28;1172;-38
2021/10/04 05:39:39;;;;;;;;;;;;;;;26.34;34.30;101700.84;5045891;28;1987;-38
2021/10/04 05:42:05;;;;;;;;;;;;;;;26.64;34.04;101707.66;5053518;28;1112;-38
2021/10/04 05:44:30;;;;;;;;;;;;;;;26.93;33.69;101702.13;5055891;28;1151;-39
2021/10/04 05:46:55;;;;;;;;;;;;;;;26.97;33.42;101708.91;5041530;28;1140;-40
2021/10/04 05:49:20;;;;;;;;;;;;;;;26.78;33.40;101706.25;5051728;28;1124;-37
2021/10/04 05:51:46;;;;;;;;;;;;;;;26.66;34.15;101715.59;5044496;28;1069;-37
2021/10/04 05:54:11;;;;;;;;;;;;;;;26.61;33.93;101709.84;5057528;28;1179;-35
2021/10/04 05:56:36;;;;;;;;;;;;;;;26.73;34.43;101713.97;5052845;28;1123;-37
2021/10/04 05:59:01;;;;;;;;;;;;;;;26.75;33.88;101722.78;5042032;28;1898;-33
2021/10/04 06:01:27;;;;;;;;;;;;;;;26.63;34.34;101730.25;5040309;28;1532;-33
2021/10/04 06:03:52;;;;;;;;;;;;;;;26.73;34.10;101723.91;5057736;28;1104;-32
2021/10/04 06:06:17;;;;;;;;;;;;;;;26.78;34.31;101724.31;5048303;28;1171;-32
2021/10/04 06:08:42;;;;;;;;;;;;;;;26.82;34.23;101723.00;5057239;28;1211;-33
2021/10/04 06:11:08;;;;;;;;;;;;;;;26.81;34.36;101723.16;5057447;28;1015;-32
2021/10/04 06:13:33;;;;;;;;;;;;;;;26.98;34.23;101724.09;5057131;28;1283;-32
2021/10/04 06:16:01;;;;;;;;;;;;;;;26.95;34.12;101729.81;5057098;28;1054;-33
2021/10/04 06:18:26;;;;;;;;;;;;;;;26.95;34.42;101729.81;5057711;28;1914;-33
2021/10/04 06:20:53;;;;;;;;;;;;;;;27.09;34.13;101728.44;5048938;28;910;-32
2021/10/04 06:23:18;;;;;;;;;;;;;;;27.15;34.21;101722.38;5039196;28;979;-33
2021/10/04 06:25:43;;;;;;;;;;;;;;;27.09;34.32;101707.66;5040519;28;1104;-33
2021/10/04 06:28:08;;;;;;;;;;;;;;;27.32;34.22;101725.19;5057983;28;1127;-32
2021/10/04 06:30:34;;;;;;;;;;;;;;;27.42;33.71;101725.91;5055683;28;1033;-33
2021/10/04 06:32:59;;;;;;;;;;;;;;;27.51;33.91;101727.63;5046505;28;1179;-33
2021/10/04 06:35:24;;;;;;;;;;;;;;;27.61;33.83;101724.81;5052220;28;1234;-32
2021/10/04 06:37:49;;;;;;;;;;;;;;;27.53;33.95;101724.78;5056726;28;1116;-38
2021/10/04 06:40:16;;;;;;;;;;;;;;;27.62;33.65;101721.13;5056118;28;1973;-36
2021/10/04 06:42:42;;;;;;;;;;;;;;;27.66;33.79;101721.59;5055631;28;1291;-34
2021/10/04 06:45:07;;;;;;;;;;;;;;;27.62;33.81;101722.97;5045727;28;1513;-39
2021/10/04 06:47:33;;;;;;;;;;;;;;;27.74;33.99;101726.25;5049623;28;1112;-40
2021/10/04 06:49:59;;;;;;;;;;;;;;;27.78;33.99;101716.78;5045853;28;1359;-38
2021/10/04 06:52:24;;;;;;;;;;;;;;;27.82;33.75;101714.59;5050968;28;1170;-38
2021/10/04 06:54:49;;;;;;;;;;;;;;;27.87;33.76;101717.66;5054384;28;1081;-38
2021/10/04 06:57:15;;;;;;;;;;;;;;;27.87;33.95;101728.47;5051676;28;1053;-39
2021/10/04 06:59:40;;;;;;;;;;;;;;;28.00;33.71;101733.41;5047570;28;1893;-37
2021/10/04 07:02:05;;;;;;;;;;;;;;;27.93;33.51;101727.81;5053531;28;1029;-37
2021/10/04 07:04:30;;;;;;;;;;;;;;;27.66;32.87;101724.31;5056472;28;1147;-38
2021/10/04 07:06:56;;;;;;;;;;;;;;;27.75;33.62;101720.69;5056619;28;1258;-39
2021/10/04 07:09:21;;;;;;;;;;;;;;;27.93;33.59;101714.28;5056576;28;1143;-38
2021/10/04 07:11:46;;;;;;;;;;;;;;;27.93;33.66;101719.72;5056316;28;1147;-37
2021/10/04 07:14:11;;;;;;;;;;;;;;;28.03;33.70;101721.44;5050366;28;1361;-38
2021/10/04 07:16:37;;;;;;;;;;;;;;;28.09;33.41;101724.28;5050005;28;1135;-38
2021/10/04 07:19:03;;;;;;;;;;;;;;;28.09;33.71;101726.19;5056258;28;1902;-40
2021/10/04 07:21:29;;;;;;;;;;;;;;;28.16;33.43;101727.19;5045672;28;1123;-35
2021/10/04 07:23:55;;;;;;;;;;;;;;;28.15;33.61;101722.81;5041964;28;1140;-38
2021/10/04 07:26:22;;;;;;;;;;;;;;;28.08;33.96;101722.63;5042994;28;1152;-41
2021/10/04 07:28:47;;;;;;;;;;;;;;;28.01;33.93;101728.88;5050285;28;997;-39
2021/10/04 07:31:13;;;;;;;;;;;;;;;28.00;33.78;101725.31;5046559;28;1092;-33
2021/10/04 07:33:38;;;;;;;;;;;;;;;27.87;34.00;101721.22;5042037;28;1198;-37
2021/10/04 07:36:06;;;;;;;;;;;;;;;27.91;34.34;101729.00;5039009;28;1140;-35
2021/10/04 07:38:32;;;;;;;;;;;;;;;28.13;34.11;101732.09;5048982;28;1980;-35
2021/10/04 07:40:58;;;;;;;;;;;;;;;28.04;34.13;101731.22;5055495;28;1167;-39
2021/10/04 07:43:23;;;;;;;;;;;;;;;28.13;33.82;101727.53;5055039;28;953;-32
2021/10/04 07:45:49;;;;;;;;;;;;;;;28.11;34.05;101732.28;5053930;28;1064;-34
2021/10/04 07:48:14;;;;;;;;;;;;;;;28.06;34.00;101735.44;5052113;28;1167;-38
2021/10/04 07:50:39;;;;;;;;;;;;;;;28.10;34.11;101741.38;5054908;28;1155;-34
2021/10/04 07:53:04;;;;;;;;;;;;;;;28.07;34.35;101742.56;5055375;28;1143;-35
2021/10/04 07:55:30;;;;;;;;;;;;;;;28.13;34.26;101745.63;5055230;28;888;-36
2021/10/04 07:57:55;;;;;;;;;;;;;;;28.05;34.20;101747.28;5055596;28;1237;-36
2021/10/04 08:00:20;;;;;;;;;;;;;;;28.19;34.36;101736.84;5055362;28;1906;-35
2021/10/04 08:02:46;;;;;;;;;;;;;;;28.18;34.01;101743.25;5049106;28;1274;-39
2021/10/04 08:05:11;;;;;;;;;;;;;;;28.08;34.04;101746.09;5045668;28;1119;-39
2021/10/04 08:07:37;;;;;;;;;;;;;;;28.18;34.07;101749.50;5055486;28;1143;-35
2021/10/04 08:10:02;;;;;;;;;;;;;;;28.22;33.78;101753.59;5053765;28;1222;-31
2021/10/04 08:12:28;;;;;;;;;;;;;;;28.12;33.91;101755.59;5045418;28;1210;-33
2021/10/04 08:14:53;;;;;;;;;;;;;;;28.19;33.82;101751.22;5053001;28;1156;-34
2021/10/04 08:17:18;;;;;;;;;;;;;;;28.08;34.24;101756.91;5055316;28;1489;-35
2021/10/04 08:19:44;;;;;;;;;;;;;;;28.15;33.89;101749.84;5051934;28;1906;-31
2021/10/04 08:22:10;;;;;;;;;;;;;;;28.10;34.27;101755.75;5055064;28;1135;-38
2021/10/04 08:24:35;;;;;;;;;;;;;;;28.06;34.16;101746.28;5055601;28;1171;-38
2021/10/04 08:27:01;;;;;;;;;;;;;;;28.24;33.81;101751.53;5052164;28;1112;-33
2021/10/04 08:29:26;;;;;;;;;;;;;;;27.67;30.65;101753.06;5054962;28;1154;-33
2021/10/04 08:31:51;;;;;;;;;;;;;;;27.33;28.50;101760.16;5049159;28;1116;-32
2021/10/04 08:34:17;;;;;;;;;;;;;;;27.53;29.82;101750.97;5055298;28;910;-36
2021/10/04 08:36:42;;;;;;;;;;;;;;;27.61;30.17;101753.72;5053442;28;1128;-35
2021/10/04 08:39:07;;;;;;;;;;;;;;;27.59;29.26;101744.91;5037691;28;1898;-34
2021/10/04 08:41:34;;;;;;;;;;;;;;;27.94;30.15;101740.34;5044831;28;1056;-30
2021/10/04 08:44:00;;;;;;;;;;;;;;;28.02;30.08;101739.50;5050359;28;1195;-32
2021/10/04 08:46:25;;;;;;;;;;;;;;;27.98;30.16;101739.00;5047475;28;953;-35
2021/10/04 08:48:50;;;;;;;;;;;;;;;28.27;30.19;101746.81;5035117;28;1171;-34
2021/10/04 08:51:16;;;;;;;;;;;;;;;28.34;29.67;101747.88;5051255;28;1143;-32
2021/10/04 08:53:41;;;;;;;;;;;;;;;28.70;30.58;101742.16;5055143;28;1171;-27
2021/10/04 08:56:07;;;;;;;;;;;;;;;28.94;30.47;101742.31;5024361;28;1100;-31
2021/10/04 08:58:32;;;;;;;;;;;;;;;28.97;30.26;101736.56;5044461;28;1897;-32
2021/10/04 09:01:00;;;;;;;;;;;;;;;28.99;30.57;101734.53;5059543;28;1147;-29
2021/10/04 09:03:26;;;;;;;;;;;;;;;28.96;30.19;101729.44;5059274;28;1124;-31
2021/10/04 09:05:57;;;;;;;;;;;;;;;29.20;30.15;101728.56;5057508;28;1147;-31
2021/10/04 09:08:23;;;;;;;;;;;;;;;29.24;29.79;101729.06;5050111;28;1254;-31
2021/10/04 09:10:55;;;;;;;;;;;;;;;29.36;29.59;101715.13;5050500;28;1150;-31
2021/10/04 09:13:20;;;;;;;;;;;;;;;29.61;29.47;101715.91;5044730;28;1112;-31
2021/10/04 09:15:49;;;;;;;;;;;;;;;29.72;28.21;101713.81;5051037;28;999;-35
2021/10/04 09:18:14;;;;;;;;;;;;;;;29.86;28.29;101723.06;5046570;28;1100;-31
2021/10/04 09:20:47;;;;;;;;;;;;;;;29.90;28.17;101721.69;5058214;28;1921;-32
2021/10/04 09:23:31;;;;;;;;;;;;;;;29.72;27.75;101708.38;5058120;28;1188;-34
2021/10/04 09:25:56;;;;;;;;;;;;;;;29.62;27.26;101708.63;5051465;28;1179;-33
2021/10/04 09:28:28;;;;;;;;;;;;;;;29.39;27.63;101707.50;5042065;28;958;-34
2021/10/04 09:31:00;;;;;;;;;;;;;;;29.32;27.15;101711.94;5044738;28;1085;-33
2021/10/04 09:33:25;;;;;;;;;;;;;;;29.54;27.22;101704.06;5065379;28;1199;-35
2021/10/04 09:35:51;;;;;;;;;;;;;;;29.41;26.92;101704.63;5050923;28;1104;-35
2021/10/04 09:38:16;;;;;;;;;;;;;;;29.45;27.05;101697.81;5051834;28;1244;-38
2021/10/04 09:40:42;;;;;;;;;;;;;;;29.24;24.14;101699.25;5051878;28;1905;-34
2021/10/04 09:43:09;;;;;;;;;;;;;;;27.53;25.59;101683.41;5054557;28;961;-33
2021/10/04 09:45:34;;;;;;;;;;;;;;;28.52;24.52;101682.78;5052827;28;1198;-33
2021/10/04 09:48:12;;;;;;;;;;;;;;;28.33;25.05;101676.69;5043122;28;1599;-40
2021/10/04 09:50:37;;;;;;;;;;;;;;;28.71;29.96;101696.97;5054242;28;1265;-40
2021/10/04 09:53:03;;;;;;;;;;;;;;;28.25;30.12;101692.88;5040747;28;982;-40
2021/10/04 09:55:29;;;;;;;;;;;;;;;26.54;29.76;101693.44;5037692;28;1155;-40
2021/10/04 09:57:54;;;;;;;;;;;;;;;26.88;28.51;101695.34;5038619;28;1163;-40
2021/10/04 10:00:19;;;;;;;;;;;;;;;26.79;27.51;101690.91;5057675;28;1913;-40
2021/10/04 10:02:44;;;;;;;;;;;;;;;27.60;26.91;101681.72;5057707;28;1115;-39
2021/10/04 10:05:10;;;;;;;;;;;;;;;27.98;27.42;101675.94;5055311;28;1190;-39
2021/10/04 10:07:35;;;;;;;;;;;;;;;28.27;30.37;101679.19;5056524;28;1139;-38
2021/10/04 10:10:00;;;;;;;;;;;;;;;27.25;26.98;101674.50;5054971;28;1171;-39
2021/10/04 10:12:26;;;;;;;;;;;;;;;26.11;27.86;101677.84;5037383;28;1178;-39
2021/10/04 10:14:51;;;;;;;;;;;;;;;26.88;26.65;101672.91;5048855;28;1203;-37
2021/10/04 10:17:20;;;;;;;;;;;;;;;27.70;26.73;101673.50;5056622;28;1075;-37
2021/10/04 10:19:47;;;;;;;;;;;;;;;28.44;26.00;101670.09;5044071;28;1976;-40
2021/10/04 10:22:13;;;;;;;;;;;;;;;27.67;25.39;101673.81;5053040;28;1303;-39
2021/10/04 10:24:39;;;;;;;;;;;;;;;26.61;26.87;101672.91;5050605;28;1049;-40
2021/10/04 10:27:04;;;;;;;;;;;;;;;27.30;25.94;101670.47;5046379;28;1187;-38
2021/10/04 10:29:30;;;;;;;;;;;;;;;26.85;27.01;101673.22;5056626;28;868;-41
2021/10/04 10:31:55;;;;;;;;;;;;;;;26.51;27.71;101664.03;5052761;28;1151;-40
2021/10/04 10:34:27;;;;;;;;;;;;;;;26.53;27.82;101665.59;5057177;28;1171;-39
2021/10/04 10:37:12;;;;;;;;;;;;;;;26.67;28.27;101657.06;5056945;28;1198;-40
2021/10/04 10:39:45;;;;;;;;;;;;;;;27.04;28.27;101656.00;5034567;28;1902;-40
2021/10/04 10:42:29;;;;;;;;;;;;;;;27.45;28.01;101658.03;5040967;28;1001;-38
2021/10/04 10:44:54;;;;;;;;;;;;;;;27.30;27.60;101656.94;5038928;28;1030;-40
2021/10/04 10:47:38;;;;;;;;;;;;;;;26.22;28.88;101659.72;5039407;28;1444;-40
2021/10/04 10:50:08;;;;;;;;;;;;;;;27.78;27.63;101651.06;5043112;28;1112;-41
2021/10/04 10:52:37;;;;;;;;;;;;;;;28.56;26.96;101657.03;5056967;28;1147;-42
2021/10/04 10:55:22;;;;;;;;;;;;;;;28.79;26.70;101663.63;5055966;28;1258;-41
2021/10/04 10:57:47;;;;;;;;;;;;;;;28.78;26.60;101651.13;5048334;28;1875;-41
2021/10/04 11:00:23;;;;;;;;;;;;;;;29.02;26.19;101644.81;5050793;28;1901;-40
2021/10/04 11:02:49;;;;;;;;;;;;;;;29.13;26.39;101638.16;5044569;28;1140;-40
2021/10/04 11:05:37;;;;;;;;;;;;;;;29.29;26.46;101639.97;5055659;28;1099;-39
2021/10/04 11:08:09;;;;;;;;;;;;;;;29.42;26.13;101638.53;5036043;28;1744;-39
2021/10/04 11:10:35;;;;;;;;;;;;;;;29.11;26.10;101625.81;5048527;28;1202;-39
2021/10/04 11:13:09;;;;;;;;;;;;;;;28.89;26.56;101629.06;5049533;28;1100;-40
2021/10/04 11:15:38;;;;;;;;;;;;;;;28.68;26.76;101629.63;5054165;28;969;-40
2021/10/04 11:18:04;;;;;;;;;;;;;;;28.55;27.21;101628.28;5056153;28;1163;-40
2021/10/04 11:20:29;;;;;;;;;;;;;;;28.42;27.46;101625.25;5050715;28;1979;-40
2021/10/04 11:23:14;;;;;;;;;;;;;;;28.50;28.04;101625.25;5036202;28;1362;-33
2021/10/04 11:25:43;;;;;;;;;;;;;;;28.71;28.04;101621.16;5055126;28;1184;-32
2021/10/04 11:28:08;;;;;;;;;;;;;;;29.04;27.31;101623.81;5056082;28;1127;-32
2021/10/04 11:30:52;;;;;;;;;;;;;;;29.28;27.00;101627.41;5055850;28;1194;-31
2021/10/04 11:33:17;;;;;;;;;;;;;;;28.93;27.59;101626.84;5055034;28;914;-29
2021/10/04 11:35:57;;;;;;;;;;;;;;;28.46;28.60;101622.03;5037721;28;1155;-28
2021/10/04 11:38:23;;;;;;;;;;;;;;;28.33;28.65;101622.56;5047283;28;1131;-29
2021/10/04 11:40:48;;;;;;;;;;;;;;;28.16;28.82;101627.09;5045908;28;1902;-28
2021/10/04 11:43:14;;;;;;;;;;;;;;;28.38;28.61;101621.22;5046060;28;1144;-44
2021/10/04 11:45:39;;;;;;;;;;;;;;;28.71;28.06;101619.28;5054517;28;979;-42
2021/10/04 11:48:05;;;;;;;;;;;;;;;28.58;28.44;101606.28;5041447;28;1135;-41
2021/10/04 11:50:30;;;;;;;;;;;;;;;28.66;28.52;101615.44;5055356;28;888;-41
2021/10/04 11:52:56;;;;;;;;;;;;;;;28.76;28.58;101613.34;5055620;28;1173;-42
2021/10/04 11:55:21;;;;;;;;;;;;;;;28.72;28.73;101602.03;5055733;28;1190;-42
2021/10/04 11:57:46;;;;;;;;;;;;;;;28.92;28.35;101608.91;5049199;28;1202;-41
2021/10/04 12:00:12;;;;;;;;;;;;;;;28.99;28.37;101604.53;5055958;28;1969;-42
2021/10/04 12:02:41;;;;;;;;;;;;;;;29.01;28.69;101609.78;5048723;28;1520;-41
2021/10/04 12:05:13;;;;;;;;;;;;;;;28.97;28.79;101603.84;5043344;28;1167;-42
2021/10/04 12:07:38;;;;;;;;;;;;;;;28.97;28.77;101606.56;5055014;28;965;-42
2021/10/04 12:10:05;;;;;;;;;;;;;;;28.87;28.96;101606.75;5052656;28;1080;-42
2021/10/04 12:12:34;;;;;;;;;;;;;;;28.91;28.94;101604.53;5055119;28;1249;-42
2021/10/04 12:15:00;;;;;;;;;;;;;;;28.83;29.30;101592.69;5052629;28;1194;-41
2021/10/04 12:17:25;;;;;;;;;;;;;;;28.79;29.53;101596.78;5060531;28;1138;-41
2021/10/04 12:19:50;;;;;;;;;;;;;;;28.84;29.32;101601.66;5046851;28;1963;-41
2021/10/04 12:22:31;;;;;;;;;;;;;;;28.80;29.52;101609.28;5052498;28;1187;-41
2021/10/04 12:24:56;;;;;;;;;;;;;;;28.67;29.79;101590.88;5043329;28;1151;-41
2021/10/04 12:27:22;;;;;;;;;;;;;;;28.83;29.74;101600.81;5053847;28;1096;-41
2021/10/04 12:29:57;;;;;;;;;;;;;;;28.80;30.08;101603.03;5054877;28;1162;-41
2021/10/04 12:32:26;;;;;;;;;;;;;;;29.07;29.61;101603.66;5057716;28;1100;-44
2021/10/04 12:35:06;;;;;;;;;;;;;;;29.12;29.38;101600.41;5059115;28;1163;-44
2021/10/04 12:37:33;;;;;;;;;;;;;;;29.07;29.62;101606.34;5058110;28;1136;-44
2021/10/04 12:39:58;;;;;;;;;;;;;;;29.53;29.03;101608.31;5046848;28;1894;-44
2021/10/04 12:42:25;;;;;;;;;;;;;;;29.74;28.68;101615.00;5056534;28;1125;-44